Corowa, Victoria

4:31 AM AEST on August 26, 2016 (GMT +1000)
Lake Mulwala | | Change Station

Elev 420 ft 35.99 °S, 146.00 °E | Updated 11 seconds ago

Mostly Cloudy
Mostly Cloudy
39.0 °F
Feels Like 39 °F
N
1.8
Wind Variable Wind from West
Gusts 2.5 mph

Today
High -- | Low -- °F
--% Chance of Precip.
Yesterday
High -- | Low -- °F
Precip. -- in
Pressure 30.09 in
Visibility 6.2 miles
Clouds Mostly Cloudy 500 ft
Windchill 39 °F
Dew Point 39 °F
Humidity 99%
Rainfall 0.00 in
Snow Depth Not available.
6:42 AM 5:50 PM
Last Quarter, 43% visible
SPECI YMAY 251830Z AUTO 29003KT 9999 // BKN005 01/01 Q1019
Pressure 30.09 in
Visibility 6.2 miles
Clouds Mostly Cloudy 500 ft
Windchill 39 °F
Dew Point 39 °F
Humidity 99%
Rainfall 0.00 in
Snow Depth Not available.
6:42 AM 5:50 PM
Last Quarter, 43% visible
SPECI YMAY 251830Z AUTO 29003KT 9999 // BKN005 01/01 Q1019

10-Day Weather Forecast

Almanac

Astronomy

Aug. 26, 2016 Rise Set
Actual Time
Civil Twilight
Nautical Twilight
Astronomical Twilight
Moon
Length of Visible Light
Length of Day
Tomorrow will be .
, % of the Moon is Illuminated

Today's Extremes

Country Highs Country Lows

Community

WunderPhotos

Upload Photos

1,934,889 photos uploaded!

WunderBlog® & News

Nearby

Air Quality

  Air Quality AQ Index Pollutant
Not available.

Snow Depth

Station Depth Elevation

Earthquake Activity

City Distance Mag. Time & Date
Minimum magnitude displayed is 2.5.

Coastal Water Temperatures

Place Temperature

Stations

Nearby Weather Stations

Station Location Temp. Windchill Dew Point Humidity Wind Precip. Elev Updated Type